Briefing drone pour Givry

Rechercher une autre localisation

Conditions de vol :


Nous sommes le : Jeudi 30 juin 2022
Il est 20:24 UTC (22:24 LT)

Lever de soleil : 03:24 UTC (05:24 LT)
Coucher de soleil : 20:04 UTC (22:04 LT)

Météo

L'essentiel des conditions de vol

VIGILANCE MÉTÉO FRANCE - Saône-et-Loire (71)
Vigilance Jaune : Orages
METAR de LFLH
LFLH 301800Z AUTO VRB02KT 6000 -TSRA SCT029/// SCT038/// BKN070/// ///CB 14/13 Q1017

Date d'émission: 30/06/2022
Heure d'émission: 18:00 UTC
Vent: Variable 2 KT (4 km/h)
Visibilité horizontale: 6000 m
Plafond :
- Nuages épars à 2900ft (884m)
- Nuages épars à 3800ft (1158m)
- Nuages morcelés à 7000ft (2134m)
Température: 14 °C
Point de rosée: 13 °C
Humidité: 94%
Pression (QNH): 1017 hPa
Conditions: Faible Orage de pluie
Prévision 24h pour Chalon-sur-saone (5 km)
Vent : 144° pour 1 KT (3 km/h)
Temperature Maxi: 22 °C
Temperature Min: 22 °C
Humidité : 42%
Condition : Ciel dégagé



Warning: count(): Parameter must be an array or an object that implements Countable in /homepages/6/d509196549/htdocs/droneoxygene/briefing.php on line 743
WEBCAM POUR GIVRY

Réglementation

Voler en sécurité

CARTES AERONAUTIQUE 1/500.000
CARTES VAC (LFLH)
SUP AIP




Chargement des AIP...
NOTAM (GIVRY + Terrain à proximité / FIR )




Chargement des NOTAMS...
CONTACT PREFECTURE 71


Avertissement : Les données mises à disposition sont indicatives. Oxygène Drone ne pourra être tenu responsable de dégâts causés aux biens et aux personnes.